Time;durP1;ratioP1;P1;durP2;ratioP2;P2;SDS_P1;SDS_P2;PMS_P1;PMS_P2;Temp;Humidity;BMP_temperature;BMP_pressure;BME280_temperature;BME280_humidity;BME280_pressure;Samples;Min_cycle;Max_cycle;Signal;HPM_P1;HPM_P2
2023/05/05 00:00:59;;;;;;;12.93;10.57;;;;;;;15.91;83.66;101377.44;5089359;28;20124;-74
2023/05/05 00:03:25;;;;;;;15.20;11.27;;;;;;;15.86;83.56;101378.53;5092600;28;20035;-73
2023/05/05 00:05:56;;;;;;;14.80;10.73;;;;;;;15.76;84.89;101377.13;5094592;28;20028;-73
2023/05/05 00:08:22;;;;;;;14.20;11.10;;;;;;;15.67;85.66;101379.19;5097875;28;20519;-74
2023/05/05 00:10:49;;;;;;;14.57;10.90;;;;;;;15.61;86.08;101387.28;5093767;28;20062;-73
2023/05/05 00:13:15;;;;;;;14.27;11.60;;;;;;;15.52;87.18;101399.88;5093547;28;20115;-74
2023/05/05 00:15:42;;;;;;;16.65;11.48;;;;;;;15.46;88.32;101399.16;5093769;28;20483;-73
2023/05/05 00:18:07;;;;;;;16.50;11.95;;;;;;;15.36;88.02;101386.41;5100597;28;20091;-73
2023/05/05 00:20:33;;;;;;;16.13;12.00;;;;;;;15.37;88.59;101390.78;5095123;28;20087;-73
2023/05/05 00:22:58;;;;;;;18.83;13.23;;;;;;;15.32;90.20;101392.69;5097113;28;20081;-73
2023/05/05 00:25:23;;;;;;;17.20;12.25;;;;;;;15.35;90.28;101397.84;5085079;28;20043;-74
2023/05/05 00:27:49;;;;;;;17.65;13.02;;;;;;;15.33;90.96;101400.50;5094141;28;20024;-74
2023/05/05 00:30:14;;;;;;;16.10;13.30;;;;;;;15.29;92.00;101390.16;5094015;28;20039;-73
2023/05/05 00:32:40;;;;;;;14.00;12.50;;;;;;;15.26;92.33;101385.00;5093469;28;20028;-73
2023/05/05 00:35:06;;;;;;;19.42;13.50;;;;;;;15.26;92.88;101387.66;5093358;28;20374;-73
2023/05/05 00:37:31;;;;;;;17.98;13.57;;;;;;;15.30;93.35;101389.25;5092333;28;20028;-73
2023/05/05 00:39:58;;;;;;;17.90;14.23;;;;;;;15.25;93.20;101392.03;5091992;28;20558;-73
2023/05/05 00:42:23;;;;;;;17.27;13.60;;;;;;;15.20;94.11;101383.44;5106900;28;20031;-74
2023/05/05 00:44:49;;;;;;;21.20;14.52;;;;;;;15.18;94.19;101390.53;5094270;28;20038;-74
2023/05/05 00:47:15;;;;;;;19.75;15.63;;;;;;;15.23;94.65;101399.09;5099068;28;20428;-73
2023/05/05 00:49:41;;;;;;;18.00;15.00;;;;;;;15.24;95.00;101400.84;5091328;28;20020;-73
2023/05/05 00:52:07;;;;;;;17.95;15.10;;;;;;;15.30;94.92;101405.84;5096336;28;20044;-74
2023/05/05 00:54:34;;;;;;;19.50;15.35;;;;;;;15.26;95.86;101406.03;5096347;28;20032;-73
2023/05/05 00:57:01;;;;;;;19.98;15.75;;;;;;;15.22;95.90;101403.50;5092163;28;20024;-74
2023/05/05 00:59:29;;;;;;;19.27;15.40;;;;;;;15.26;95.88;101400.78;5102589;28;20035;-74
2023/05/05 01:01:54;;;;;;;22.45;16.23;;;;;;;15.19;95.65;101403.59;5093239;28;20058;-74
2023/05/05 01:04:20;;;;;;;21.30;16.33;;;;;;;15.13;95.92;101398.56;5092036;28;20052;-74
2023/05/05 01:07:12;;;;;;;21.13;16.25;;;;;;;15.07;95.97;101405.78;5093201;28;20044;-74
2023/05/05 01:09:50;;;;;;;18.67;15.05;;;;;;;14.94;97.32;101405.31;5099716;28;20027;-73
2023/05/05 01:12:52;;;;;;;19.35;16.10;;;;;;;14.91;96.34;101415.91;5088762;28;20036;-74
2023/05/05 01:15:21;;;;;;;21.52;16.58;;;;;;;14.79;98.60;101418.97;5092834;28;20222;-73
2023/05/05 01:17:55;;;;;;;21.85;16.25;;;;;;;14.78;99.19;101411.97;5097510;28;20028;-73
2023/05/05 01:20:31;;;;;;;22.92;18.23;;;;;;;14.81;98.60;101419.75;5097374;28;20065;-74
2023/05/05 01:23:00;;;;;;;20.38;16.73;;;;;;;14.84;99.57;101396.03;5091052;28;20043;-74
2023/05/05 01:25:48;;;;;;;21.08;17.33;;;;;;;14.98;99.11;101401.72;5079422;28;20032;-74
2023/05/05 01:28:32;;;;;;;25.45;17.23;;;;;;;15.07;97.33;101393.50;5080847;28;20589;-74
2023/05/05 01:31:27;;;;;;;23.38;16.85;;;;;;;15.07;97.29;101390.88;5088794;28;20047;-73
2023/05/05 01:34:00;;;;;;;21.63;17.55;;;;;;;15.03;97.62;101401.56;5090609;28;20036;-74
2023/05/05 01:36:37;;;;;;;21.20;16.83;;;;;;;15.04;98.00;101419.00;5082156;28;20035;-74
2023/05/05 01:39:05;;;;;;;20.27;16.60;;;;;;;14.95;99.13;101400.03;5091206;28;20077;-73
2023/05/05 01:41:44;;;;;;;23.08;17.80;;;;;;;14.98;98.46;101404.34;5095492;28;20046;-74
2023/05/05 01:44:12;;;;;;;22.80;17.88;;;;;;;14.90;98.60;101399.31;5101556;28;20046;-73
2023/05/05 01:46:37;;;;;;;21.60;17.17;;;;;;;14.91;99.01;101394.91;5077890;28;20103;-74
2023/05/05 01:49:04;;;;;;;23.08;17.85;;;;;;;14.83;100.00;101404.81;5090587;28;20119;-73
2023/05/05 01:51:31;;;;;;;22.40;17.60;;;;;;;14.74;100.00;101400.72;5092621;28;20459;-74
2023/05/05 01:54:01;;;;;;;23.17;18.35;;;;;;;14.62;100.00;101407.22;5091195;28;20035;-73
2023/05/05 01:56:30;;;;;;;22.42;17.63;;;;;;;14.55;100.00;101410.06;5091314;28;20415;-73
2023/05/05 01:58:57;;;;;;;25.75;18.52;;;;;;;14.39;100.00;101402.66;5093395;28;20669;-73
2023/05/05 02:01:27;;;;;;;23.88;18.80;;;;;;;14.32;100.00;101408.97;5092132;28;20071;-73
2023/05/05 02:03:55;;;;;;;22.67;18.25;;;;;;;14.12;100.00;101411.31;5091333;28;20024;-73
2023/05/05 02:06:22;;;;;;;22.58;18.20;;;;;;;14.01;100.00;101414.28;5092035;28;20065;-74
2023/05/05 02:08:50;;;;;;;24.20;18.92;;;;;;;13.92;100.00;101417.16;5089252;28;20074;-73
2023/05/05 02:11:16;;;;;;;27.45;20.30;;;;;;;13.86;100.00;101414.69;5092286;28;20052;-74
2023/05/05 02:13:43;;;;;;;25.38;19.25;;;;;;;13.78;100.00;101410.53;5094672;28;20028;-73
2023/05/05 02:16:09;;;;;;;25.23;19.33;;;;;;;13.70;100.00;101429.97;5092550;28;20123;-73
2023/05/05 02:18:35;;;;;;;24.08;18.85;;;;;;;13.61;100.00;101423.25;5094279;28;20038;-73
2023/05/05 02:21:01;;;;;;;25.77;19.52;;;;;;;13.51;100.00;101424.38;5090786;28;20031;-74
2023/05/05 02:23:27;;;;;;;24.95;19.75;;;;;;;13.45;100.00;101430.63;5092274;28;20047;-74
2023/05/05 02:25:58;;;;;;;25.50;19.50;;;;;;;13.44;100.00;101430.66;5090110;28;20391;-74
2023/05/05 02:28:50;;;;;;;26.30;19.77;;;;;;;13.40;100.00;101434.28;5093066;28;20027;-73
2023/05/05 02:31:19;;;;;;;25.30;19.80;;;;;;;13.33;100.00;101436.19;5093526;28;20491;-73
2023/05/05 02:33:46;;;;;;;24.10;18.67;;;;;;;13.22;100.00;101439.06;5091084;28;20035;-74
2023/05/05 02:36:19;;;;;;;26.52;19.75;;;;;;;13.08;100.00;101439.41;5089362;28;20058;-74
2023/05/05 02:38:46;;;;;;;29.42;20.05;;;;;;;13.01;100.00;101445.66;5097233;28;20025;-73
2023/05/05 02:41:17;;;;;;;24.90;20.23;;;;;;;12.89;100.00;101446.81;5089654;28;20058;-73
2023/05/05 02:43:45;;;;;;;25.83;19.95;;;;;;;12.80;100.00;101452.25;5096834;28;20031;-73
2023/05/05 02:46:10;;;;;;;25.52;19.17;;;;;;;12.74;100.00;101456.78;5111262;28;20420;-74
2023/05/05 02:48:35;;;;;;;25.45;19.65;;;;;;;12.72;100.00;101462.06;5104868;28;20057;-73
2023/05/05 02:51:00;;;;;;;26.52;19.27;;;;;;;12.71;100.00;101459.47;5110020;28;20394;-74
2023/05/05 02:53:27;;;;;;;24.60;19.30;;;;;;;12.66;100.00;101459.56;5105082;28;20024;-73
2023/05/05 02:56:32;;;;;;;27.05;19.98;;;;;;;12.67;100.00;101469.13;5096304;28;20395;-73
2023/05/05 02:59:11;;;;;;;26.33;18.88;;;;;;;12.66;100.00;101454.34;5095593;28;20370;-73
2023/05/05 03:01:53;;;;;;;26.67;18.40;;;;;;;12.61;100.00;101453.56;5099969;28;20086;-73
2023/05/05 03:04:28;;;;;;;24.50;18.45;;;;;;;12.51;100.00;101452.06;5090131;28;20041;-74
2023/05/05 03:07:00;;;;;;;23.92;18.13;;;;;;;12.52;100.00;101454.63;5105924;28;20510;-74
2023/05/05 03:09:38;;;;;;;25.33;18.35;;;;;;;12.50;100.00;101451.19;5091908;28;20023;-74
2023/05/05 03:12:08;;;;;;;25.00;18.63;;;;;;;12.43;100.00;101454.00;5100880;28;20474;-73
2023/05/05 03:14:40;;;;;;;23.83;18.40;;;;;;;12.38;100.00;101454.91;5098056;28;20044;-73
2023/05/05 03:17:08;;;;;;;22.52;18.30;;;;;;;12.34;100.00;101455.88;5111865;28;20024;-74
2023/05/05 03:19:35;;;;;;;23.25;18.70;;;;;;;12.33;100.00;101451.56;5096294;28;20032;-73
2023/05/05 03:22:02;;;;;;;27.27;19.70;;;;;;;12.34;100.00;101463.72;5112085;28;20039;-73
2023/05/05 03:24:28;;;;;;;24.35;18.80;;;;;;;12.30;100.00;101471.69;5103455;28;20031;-73
2023/05/05 03:26:53;;;;;;;26.65;19.55;;;;;;;12.24;100.00;101472.66;5099056;28;20035;-74
2023/05/05 03:29:18;;;;;;;26.42;19.60;;;;;;;12.20;100.00;101465.78;5098708;28;20035;-73
2023/05/05 03:31:44;;;;;;;24.73;19.17;;;;;;;12.20;100.00;101471.00;5110686;28;20064;-73
2023/05/05 03:34:09;;;;;;;25.38;19.23;;;;;;;12.13;100.00;101470.28;5092797;28;20039;-73
2023/05/05 03:36:35;;;;;;;26.60;19.48;;;;;;;12.10;100.00;101470.34;5113254;28;20019;-74
2023/05/05 03:39:00;;;;;;;26.17;20.13;;;;;;;12.00;100.00;101447.00;5093143;28;20056;-74
2023/05/05 03:41:26;;;;;;;31.50;20.13;;;;;;;12.11;100.00;101458.97;5111485;28;20026;-73
2023/05/05 03:43:52;;;;;;;25.67;20.27;;;;;;;12.07;100.00;101477.38;5102434;28;20015;-73
2023/05/05 03:46:18;;;;;;;25.13;19.65;;;;;;;12.02;100.00;101477.44;5110580;28;20039;-73
2023/05/05 03:48:43;;;;;;;23.63;19.13;;;;;;;11.98;100.00;101478.41;5113143;28;20024;-74
2023/05/05 03:51:09;;;;;;;27.90;20.50;;;;;;;11.95;100.00;101475.84;5097657;28;20051;-73
2023/05/05 03:53:34;;;;;;;25.70;20.45;;;;;;;11.91;100.00;101469.81;5099481;28;20032;-73
2023/05/05 03:55:59;;;;;;;26.10;19.17;;;;;;;11.85;100.00;101472.53;5103634;28;20059;-73
2023/05/05 03:58:25;;;;;;;27.48;19.35;;;;;;;11.89;100.00;101481.19;5100083;28;20024;-73
2023/05/05 04:00:51;;;;;;;27.13;19.50;;;;;;;11.87;100.00;101485.56;5107265;28;20028;-74
2023/05/05 04:03:16;;;;;;;27.65;18.75;;;;;;;11.86;100.00;101487.31;5096479;28;20545;-74
2023/05/05 04:05:41;;;;;;;24.90;18.23;;;;;;;11.82;100.00;101485.63;5111538;28;20028;-73
2023/05/05 04:08:07;;;;;;;27.35;17.73;;;;;;;11.80;100.00;101481.31;5112902;27;20028;-74
2023/05/05 04:10:32;;;;;;;24.17;18.40;;;;;;;11.79;100.00;101485.69;5101436;28;20443;-73
2023/05/05 04:12:57;;;;;;;23.10;17.00;;;;;;;11.78;100.00;101491.81;5103104;28;20031;-74
2023/05/05 04:15:23;;;;;;;20.80;17.27;;;;;;;11.72;100.00;101484.06;5109988;28;20039;-74
2023/05/05 04:17:48;;;;;;;25.20;17.38;;;;;;;11.78;100.00;101497.03;5111891;28;20012;-73
2023/05/05 04:20:13;;;;;;;17.45;15.02;;;;;;;11.79;100.00;101496.13;5096526;28;20355;-74
2023/05/05 04:22:39;;;;;;;22.20;16.95;;;;;;;11.79;100.00;101495.28;5110861;27;20482;-74
2023/05/05 04:25:05;;;;;;;21.25;16.35;;;;;;;11.80;100.00;101497.84;5108678;27;20092;-73
2023/05/05 04:27:30;;;;;;;19.30;15.88;;;;;;;11.81;100.00;101494.38;5114290;28;20040;-73
2023/05/05 04:29:56;;;;;;;21.02;15.40;;;;;;;11.81;100.00;101493.50;5107207;28;20066;-73
2023/05/05 04:32:21;;;;;;;22.98;15.70;;;;;;;11.77;100.00;101492.69;5094048;28;20438;-73
2023/05/05 04:34:47;;;;;;;22.08;15.65;;;;;;;11.81;100.00;101504.81;5089641;28;20443;-73
2023/05/05 04:37:12;;;;;;;23.92;16.48;;;;;;;11.83;100.00;101503.00;5106573;28;20028;-73
2023/05/05 04:39:38;;;;;;;18.63;15.13;;;;;;;11.86;100.00;101500.38;5103934;28;20023;-74
2023/05/05 04:42:03;;;;;;;20.77;14.98;;;;;;;11.87;100.00;101499.50;5102199;28;20039;-74
2023/05/05 04:44:28;;;;;;;22.73;16.08;;;;;;;11.89;100.00;101504.69;5102453;28;20058;-74
2023/05/05 04:46:54;;;;;;;21.35;16.13;;;;;;;11.88;100.00;101496.00;5107281;28;20085;-74
2023/05/05 04:49:19;;;;;;;21.10;15.93;;;;;;;11.89;100.00;101504.69;5097550;28;20097;-73
2023/05/05 04:51:45;;;;;;;19.85;15.10;;;;;;;11.87;100.00;101496.91;5101267;28;20161;-73
2023/05/05 04:54:10;;;;;;;24.88;15.68;;;;;;;11.90;100.00;101498.56;5102626;27;20099;-74
2023/05/05 04:56:36;;;;;;;22.05;15.25;;;;;;;11.89;100.00;101497.72;5106356;28;20157;-73
2023/05/05 04:59:01;;;;;;;22.88;15.80;;;;;;;11.87;100.00;101485.56;5094145;28;20035;-73
2023/05/05 05:01:26;;;;;;;19.55;15.90;;;;;;;11.86;100.00;101482.09;5092726;28;20024;-73
2023/05/05 05:03:52;;;;;;;23.00;16.88;;;;;;;11.93;100.00;101495.91;5101378;28;20027;-73
2023/05/05 05:06:17;;;;;;;20.00;15.40;;;;;;;11.93;100.00;101488.06;5105476;27;20058;-74
2023/05/05 05:08:42;;;;;;;19.90;15.45;;;;;;;11.93;100.00;101478.50;5098614;28;20551;-73
2023/05/05 05:11:08;;;;;;;21.88;15.43;;;;;;;11.98;100.00;101490.59;5106723;28;20387;-74
2023/05/05 05:13:33;;;;;;;19.83;15.50;;;;;;;12.01;100.00;101486.19;5107557;28;20052;-73
2023/05/05 05:15:59;;;;;;;21.15;15.88;;;;;;;11.98;100.00;101467.94;5103327;28;20379;-73
2023/05/05 05:18:25;;;;;;;20.35;15.95;;;;;;;12.03;100.00;101483.53;5100057;28;20158;-73
2023/05/05 05:20:50;;;;;;;21.83;15.60;;;;;;;12.10;100.00;101490.38;5109898;28;20098;-73
2023/05/05 05:23:15;;;;;;;19.33;15.15;;;;;;;12.01;100.00;101460.06;5113437;28;20050;-73
2023/05/05 05:25:41;;;;;;;19.65;16.13;;;;;;;12.13;100.00;101488.56;5101070;28;20059;-73
2023/05/05 05:28:06;;;;;;;21.48;16.35;;;;;;;12.21;100.00;101480.56;5101706;28;20028;-74
2023/05/05 05:30:32;;;;;;;19.80;15.38;;;;;;;12.30;100.00;101487.38;5108284;28;20031;-73
2023/05/05 05:32:57;;;;;;;18.73;15.82;;;;;;;12.33;100.00;101482.06;5111231;28;20032;-73
2023/05/05 05:35:22;;;;;;;20.17;15.77;;;;;;;12.40;100.00;101484.53;5107952;28;20180;-73
2023/05/05 05:37:49;;;;;;;19.83;15.80;;;;;;;12.50;100.00;101492.19;5108458;28;20027;-73
2023/05/05 05:40:15;;;;;;;23.67;16.92;;;;;;;12.60;100.00;101507.63;5111934;27;20024;-74
2023/05/05 05:42:40;;;;;;;24.40;17.40;;;;;;;12.67;100.00;101513.59;5110318;28;20016;-74
2023/05/05 05:45:06;;;;;;;20.33;16.42;;;;;;;12.74;100.00;101524.78;5101362;28;20463;-73
2023/05/05 05:47:32;;;;;;;23.65;16.88;;;;;;;12.79;100.00;101531.66;5096060;28;20051;-74
2023/05/05 05:49:57;;;;;;;20.45;16.75;;;;;;;12.93;100.00;101546.19;5097571;28;20490;-74
2023/05/05 05:52:22;;;;;;;22.63;16.95;;;;;;;13.04;100.00;101557.28;5101573;28;20035;-74
2023/05/05 05:54:48;;;;;;;20.50;16.17;;;;;;;13.11;100.00;101545.75;5106088;28;20031;-73
2023/05/05 05:57:13;;;;;;;19.13;15.80;;;;;;;13.26;100.00;101566.41;5111025;28;20031;-74
2023/05/05 05:59:38;;;;;;;19.48;15.95;;;;;;;13.39;100.00;101561.75;5100172;28;21629;-74
2023/05/05 06:02:04;;;;;;;22.83;16.45;;;;;;;13.44;100.00;101552.03;5103553;28;20028;-74
2023/05/05 06:04:30;;;;;;;19.77;15.65;;;;;;;13.57;100.00;101576.19;5109125;28;20023;-74
2023/05/05 06:06:56;;;;;;;18.45;16.02;;;;;;;13.68;100.00;101573.28;5101320;28;20065;-73
2023/05/05 06:09:21;;;;;;;19.52;15.77;;;;;;;13.80;100.00;101578.22;5110628;28;20028;-74
2023/05/05 06:11:47;;;;;;;18.75;15.07;;;;;;;13.89;100.00;101574.50;5101084;28;20028;-73
2023/05/05 06:14:12;;;;;;;17.52;15.00;;;;;;;13.99;100.00;101568.09;5109517;28;20032;-73
2023/05/05 06:16:37;;;;;;;21.52;15.63;;;;;;;14.13;100.00;101565.16;5100627;28;20494;-73
2023/05/05 06:19:08;;;;;;;18.92;15.68;;;;;;;14.28;100.00;101570.81;5101162;28;20023;-74
2023/05/05 06:21:34;;;;;;;21.02;14.82;;;;;;;14.45;100.00;101586.13;5093552;28;20036;-73
2023/05/05 06:23:59;;;;;;;22.00;15.25;;;;;;;14.59;100.00;101590.16;5098564;28;20095;-73
2023/05/05 06:26:24;;;;;;;17.88;13.93;;;;;;;14.66;100.00;101578.56;5110138;28;20504;-73
2023/05/05 06:28:50;;;;;;;19.35;14.57;;;;;;;14.73;100.00;101575.72;5096721;28;20020;-73
2023/05/05 06:31:16;;;;;;;16.30;13.70;;;;;;;14.83;100.00;101578.06;5110674;28;20024;-74
2023/05/05 06:33:41;;;;;;;17.55;13.40;;;;;;;14.89;100.00;101562.16;5097255;28;20036;-73
2023/05/05 06:36:07;;;;;;;16.85;12.65;;;;;;;14.96;100.00;101576.81;5092196;28;20028;-73
2023/05/05 06:38:32;;;;;;;17.33;14.20;;;;;;;14.94;100.00;101565.47;5094495;28;20032;-73
2023/05/05 06:40:57;;;;;;;19.73;14.48;;;;;;;15.00;100.00;101567.91;5095119;28;20032;-74
2023/05/05 06:43:23;;;;;;;19.05;14.20;;;;;;;14.99;100.00;101567.06;5109972;28;20479;-73
2023/05/05 06:45:48;;;;;;;19.80;14.75;;;;;;;15.02;100.00;101579.25;5093615;28;20475;-72
2023/05/05 06:48:13;;;;;;;19.48;14.50;;;;;;;15.02;100.00;101576.63;5093871;28;20031;-73
2023/05/05 06:50:39;;;;;;;16.95;14.10;;;;;;;15.06;100.00;101580.88;5112344;28;20463;-73
2023/05/05 06:53:04;;;;;;;19.88;15.10;;;;;;;15.06;100.00;101572.13;5097517;28;20039;-73
2023/05/05 06:55:29;;;;;;;23.17;15.82;;;;;;;15.12;100.00;101578.06;5107176;28;20028;-73
2023/05/05 06:57:55;;;;;;;21.10;14.93;;;;;;;15.18;100.00;101574.38;5112573;28;20098;-73
2023/05/05 07:00:21;;;;;;;19.67;14.18;;;;;;;15.23;100.00;101570.69;5112355;28;20477;-73
2023/05/05 07:02:46;;;;;;;17.95;13.75;;;;;;;15.31;100.00;101577.50;5110287;28;20020;-73
2023/05/05 07:05:11;;;;;;;19.10;14.13;;;;;;;15.38;99.55;101577.25;5107086;28;20020;-73
2023/05/05 07:07:37;;;;;;;18.73;14.05;;;;;;;15.46;100.00;101579.63;5105027;28;20046;-73
2023/05/05 07:10:03;;;;;;;17.23;13.93;;;;;;;15.56;99.87;101586.28;5106822;28;20032;-73
2023/05/05 07:12:32;;;;;;;16.05;12.63;;;;;;;15.72;98.00;101583.19;5116537;28;20027;-73
2023/05/05 07:14:57;;;;;;;17.15;11.15;;;;;;;16.06;96.96;101590.84;5104191;28;20116;-73
2023/05/05 07:17:23;;;;;;;15.45;10.57;;;;;;;16.47;94.92;101591.97;5112888;28;20462;-73
2023/05/05 07:19:50;;;;;;;16.45;11.32;;;;;;;16.82;90.08;101576.69;5109353;28;20486;-73
2023/05/05 07:22:15;;;;;;;14.48;10.65;;;;;;;17.25;88.55;101585.56;5107755;28;20024;-73
2023/05/05 07:24:40;;;;;;;14.05;10.20;;;;;;;17.46;87.77;101595.28;5103017;28;20577;-73
2023/05/05 07:27:06;;;;;;;13.90;9.13;;;;;;;17.61;86.90;101587.66;5109501;28;20034;-73
2023/05/05 07:29:31;;;;;;;9.48;7.75;;;;;;;17.63;79.27;101593.72;5113428;28;20019;-73
2023/05/05 07:31:56;;;;;;;10.73;7.32;;;;;;;17.68;80.24;101592.59;5113229;28;20093;-73
2023/05/05 07:34:22;;;;;;;9.70;7.30;;;;;;;17.70;81.23;101589.91;5115065;28;20028;-73
2023/05/05 07:36:47;;;;;;;10.60;7.05;;;;;;;17.51;76.38;101588.03;5113078;28;20028;-74
2023/05/05 07:39:14;;;;;;;9.05;6.60;;;;;;;17.47;77.75;101596.13;5109009;28;20518;-72
2023/05/05 07:41:40;;;;;;;9.68;6.82;;;;;;;17.51;80.41;101580.13;5110948;28;20063;-72
2023/05/05 07:44:05;;;;;;;8.82;6.70;;;;;;;17.67;79.34;101576.84;5115309;28;20039;-76
2023/05/05 07:46:30;;;;;;;11.73;6.78;;;;;;;17.83;79.47;101571.84;5110715;28;20024;-74
2023/05/05 07:48:56;;;;;;;10.95;7.32;;;;;;;17.88;82.25;101573.34;5100597;28;20400;-74
2023/05/05 07:51:21;;;;;;;11.15;7.25;;;;;;;17.76;77.37;101572.09;5115366;28;20072;-74
2023/05/05 07:53:46;;;;;;;11.38;7.03;;;;;;;17.76;76.33;101572.09;5115545;28;20453;-74
2023/05/05 07:56:12;;;;;;;9.77;5.72;;;;;;;17.78;74.56;101572.88;5115628;28;20031;-74
2023/05/05 07:58:37;;;;;;;7.25;5.18;;;;;;;17.98;79.98;101574.69;5115147;28;20024;-73
2023/05/05 08:01:05;;;;;;;10.25;5.72;;;;;;;18.14;76.99;101566.09;5115727;28;20023;-74
2023/05/05 08:03:30;;;;;;;7.93;5.93;;;;;;;18.21;74.30;101567.53;5115147;28;20432;-74
2023/05/05 08:05:55;;;;;;;9.52;6.90;;;;;;;18.33;73.33;101569.63;5114404;28;20027;-74
2023/05/05 08:08:25;;;;;;;9.07;6.90;;;;;;;18.41;72.79;101570.16;5115424;28;20023;-74
2023/05/05 08:10:51;;;;;;;7.97;5.88;;;;;;;18.47;76.30;101571.66;5115076;28;20035;-74
2023/05/05 08:13:17;;;;;;;9.35;6.95;;;;;;;18.54;78.05;101567.84;5114838;28;20041;-74
2023/05/05 08:15:43;;;;;;;10.02;6.10;;;;;;;18.56;73.04;101579.16;5114985;28;20119;-73
2023/05/05 08:18:09;;;;;;;7.45;5.40;;;;;;;18.57;70.23;101575.59;5115074;28;20024;-74
2023/05/05 08:20:34;;;;;;;8.20;5.65;;;;;;;18.80;69.35;101577.25;5114887;28;20023;-73
2023/05/05 08:22:59;;;;;;;7.80;4.93;;;;;;;18.94;69.12;101572.16;5114156;28;20031;-74
2023/05/05 08:25:25;;;;;;;8.70;5.03;;;;;;;19.24;69.88;101569.00;5114982;28;20502;-74
2023/05/05 08:27:51;;;;;;;9.05;6.57;;;;;;;19.52;70.63;101580.84;5114265;28;20474;-74
2023/05/05 08:30:19;;;;;;;13.25;7.70;;;;;;;19.75;69.66;101583.28;5114937;28;20386;-74
2023/05/05 08:32:45;;;;;;;12.63;8.65;;;;;;;19.94;68.26;101580.53;5108648;28;20028;-74
2023/05/05 08:35:11;;;;;;;12.80;7.70;;;;;;;20.10;68.58;101586.75;5114804;28;20019;-73
2023/05/05 08:37:36;;;;;;;10.93;7.60;;;;;;;20.18;68.63;101581.06;5115132;28;20031;-74
2023/05/05 08:40:02;;;;;;;9.65;6.50;;;;;;;20.10;66.90;101578.81;5113826;28;20106;-74
2023/05/05 08:42:29;;;;;;;8.00;6.25;;;;;;;19.96;65.18;101577.81;5115060;28;20034;-74
2023/05/05 08:44:54;;;;;;;9.43;5.53;;;;;;;19.81;66.74;101582.09;5114394;28;20031;-74
2023/05/05 08:47:20;;;;;;;6.03;3.92;;;;;;;19.79;61.50;101579.53;5114150;28;20024;-74
2023/05/05 08:49:46;;;;;;;5.78;3.58;;;;;;;19.90;62.64;101581.63;5114536;28;20355;-74
2023/05/05 08:52:17;;;;;;;4.90;3.20;;;;;;;19.81;63.94;101577.66;5114521;28;20016;-74
2023/05/05 08:54:50;;;;;;;6.65;3.10;;;;;;;19.75;65.25;101588.56;5113882;28;20034;-74
2023/05/05 08:57:19;;;;;;;5.38;4.00;;;;;;;19.75;62.41;101585.03;5114762;28;20016;-74
2023/05/05 08:59:46;;;;;;;4.95;3.20;;;;;;;19.78;65.25;101580.47;5114209;28;20027;-74
2023/05/05 09:02:13;;;;;;;7.50;3.80;;;;;;;19.93;60.78;101580.63;5113879;28;20020;-74
2023/05/05 09:04:39;;;;;;;4.68;3.58;;;;;;;19.98;61.40;101578.56;5114218;28;20084;-74
2023/05/05 09:07:04;;;;;;;5.38;3.28;;;;;;;20.11;61.61;101580.53;5113952;28;20035;-74
2023/05/05 09:09:30;;;;;;;5.28;2.75;;;;;;;20.30;63.63;101580.41;5114116;28;20097;-74
2023/05/05 09:11:57;;;;;;;7.28;3.13;;;;;;;20.31;58.87;101574.19;5114014;28;20520;-74
2023/05/05 09:14:22;;;;;;;7.50;2.88;;;;;;;20.48;56.48;101583.91;5113662;28;20078;-74
2023/05/05 09:16:48;;;;;;;4.45;3.25;;;;;;;20.58;56.93;101589.59;5113272;28;20428;-74
2023/05/05 09:19:13;;;;;;;6.50;3.30;;;;;;;20.66;58.17;101586.53;5114101;28;20024;-74
2023/05/05 09:21:47;;;;;;;6.63;4.55;;;;;;;20.68;62.45;101580.22;5113729;28;20069;-74
2023/05/05 09:24:14;;;;;;;6.60;4.00;;;;;;;20.60;57.48;101582.44;5113276;28;20062;-74
2023/05/05 09:26:45;;;;;;;5.55;3.90;;;;;;;20.43;60.72;101591.22;5113509;28;20028;-74
2023/05/05 09:29:20;;;;;;;6.63;3.63;;;;;;;20.22;59.62;101597.66;5113164;28;20020;-74
2023/05/05 09:32:04;;;;;;;7.63;4.30;;;;;;;20.03;60.04;101588.00;5113826;28;20096;-74
2023/05/05 09:34:31;;;;;;;6.50;4.03;;;;;;;19.92;64.46;101606.22;5098682;28;20058;-74
2023/05/05 09:36:56;;;;;;;9.57;4.82;;;;;;;19.77;66.07;101593.75;5113270;28;20031;-74
2023/05/05 09:39:22;;;;;;;6.75;4.60;;;;;;;19.63;65.46;101589.13;5113493;28;20034;-74
2023/05/05 09:41:47;;;;;;;7.75;5.00;;;;;;;19.59;61.34;101595.50;5113112;28;20027;-74
2023/05/05 09:44:16;;;;;;;9.27;5.00;;;;;;;19.42;63.78;101596.31;5113050;28;20028;-74
2023/05/05 09:46:53;;;;;;;7.18;4.22;;;;;;;19.32;69.02;101592.41;5113237;28;20030;-74
2023/05/05 09:49:25;;;;;;;9.18;5.47;;;;;;;19.10;68.19;101593.44;5113257;28;20028;-74
2023/05/05 09:51:52;;;;;;;10.93;4.97;;;;;;;18.93;69.90;101583.66;5096056;28;20023;-74
2023/05/05 09:54:25;;;;;;;6.20;4.55;;;;;;;18.89;68.92;101589.16;5104298;28;20043;-74
2023/05/05 09:56:51;;;;;;;7.75;4.15;;;;;;;18.91;74.24;101585.50;5102455;28;20480;-74
2023/05/05 09:59:17;;;;;;;5.65;4.20;;;;;;;18.93;67.56;101582.78;5112876;28;20027;-74
2023/05/05 10:01:42;;;;;;;6.07;3.70;;;;;;;18.90;71.01;101589.09;5096037;28;20031;-74
2023/05/05 10:04:28;;;;;;;9.07;3.55;;;;;;;18.78;70.93;101579.09;5112812;28;20023;-73
2023/05/05 10:06:55;;;;;;;7.38;3.78;;;;;;;18.79;76.57;101591.34;5090085;28;20035;-73
2023/05/05 10:09:20;;;;;;;7.80;3.88;;;;;;;18.79;71.59;101585.22;5088870;28;20110;-74
2023/05/05 10:11:46;;;;;;;9.77;4.75;;;;;;;18.79;70.18;101587.88;5112332;28;20526;-74
2023/05/05 10:14:19;;;;;;;8.48;4.95;;;;;;;18.74;71.15;101588.09;5106598;28;20099;-74
2023/05/05 10:16:50;;;;;;;11.80;4.97;;;;;;;18.70;72.76;101589.09;5111644;28;20043;-73
2023/05/05 10:19:18;;;;;;;6.78;4.25;;;;;;;18.60;74.52;101582.53;5104227;28;20024;-73
2023/05/05 10:22:02;;;;;;;9.65;4.50;;;;;;;18.62;72.56;101591.25;5095026;28;20024;-75
2023/05/05 10:24:38;;;;;;;7.88;4.70;;;;;;;18.41;75.55;101593.94;5092800;28;20062;-74
2023/05/05 10:27:12;;;;;;;9.00;5.32;;;;;;;18.25;77.55;101585.81;5098125;28;20040;-73
2023/05/05 10:29:46;;;;;;;8.93;4.82;;;;;;;18.17;77.44;101590.56;5093346;28;20016;-74
2023/05/05 10:32:20;;;;;;;7.05;4.55;;;;;;;18.09;77.53;101594.47;5098922;28;20481;-74
2023/05/05 10:34:53;;;;;;;7.57;4.82;;;;;;;17.98;79.79;101603.72;5088627;28;20057;-74
2023/05/05 10:37:21;;;;;;;7.53;4.75;;;;;;;17.90;78.26;101608.44;5101456;28;20035;-73
2023/05/05 10:39:48;;;;;;;7.80;4.35;;;;;;;17.68;79.87;101604.94;5099403;28;20058;-74
2023/05/05 10:42:16;;;;;;;9.32;5.78;;;;;;;17.50;84.70;101620.59;5113119;28;20024;-74
2023/05/05 10:44:42;;;;;;;13.73;6.75;;;;;;;17.30;89.56;101617.88;5112136;28;20020;-74
2023/05/05 10:47:08;;;;;;;12.70;7.43;;;;;;;17.15;91.81;101618.47;5110826;28;20429;-74
2023/05/05 10:49:50;;;;;;;10.02;7.07;;;;;;;16.90;96.11;101619.38;5108704;28;20487;-74
2023/05/05 10:52:36;;;;;;;8.75;5.97;;;;;;;16.43;97.17;101624.59;5092002;28;20024;-74
2023/05/05 10:55:26;;;;;;;10.57;6.85;;;;;;;15.99;100.00;101615.59;5109609;28;20119;-74
2023/05/05 10:57:52;;;;;;;14.15;8.63;;;;;;;15.61;100.00;101620.31;5109578;28;20084;-75
2023/05/05 11:00:39;;;;;;;14.65;8.85;;;;;;;15.36;100.00;101625.47;5115450;28;20023;-75
2023/05/05 11:03:17;;;;;;;22.33;11.30;;;;;;;15.14;100.00;101630.53;5109276;28;20028;-77
2023/05/05 11:06:07;;;;;;;20.98;11.93;;;;;;;14.92;100.00;101639.03;5098022;28;20027;-77
2023/05/05 11:08:33;;;;;;;20.33;12.30;;;;;;;14.86;100.00;101631.34;5108884;27;20118;-79
2023/05/05 11:10:59;;;;;;;26.90;13.95;;;;;;;14.97;100.00;101637.13;5116338;28;20114;-78
2023/05/05 11:13:25;;;;;;;27.23;14.77;;;;;;;15.11;100.00;101631.50;5116194;28;20028;-79